createdAt,value
2017-01-17T00:00:51.662Z,1026.06
2017-01-17T00:02:00.643Z,1026.08
2017-01-17T00:03:09.619Z,1026.08
2017-01-17T00:04:18.601Z,1026.06
2017-01-17T00:05:27.587Z,1026.06
2017-01-17T00:06:36.564Z,1026.05
2017-01-17T00:07:45.914Z,1026.07
2017-01-17T00:08:54.895Z,1026.04
2017-01-17T00:10:03.876Z,1026.06
2017-01-17T00:11:12.886Z,1026.08
2017-01-17T00:12:21.915Z,1026.08
2017-01-17T00:13:30.905Z,1026.11
2017-01-17T00:14:39.888Z,1026.12
2017-01-17T00:15:49.015Z,1026.1
2017-01-17T00:16:58.669Z,1026.12
2017-01-17T00:18:08.652Z,1026.1
2017-01-17T00:19:17.687Z,1026.08
2017-01-17T00:20:27.141Z,1026.07
2017-01-17T00:21:36.612Z,1026.15
2017-01-17T00:22:45.589Z,1026.1
2017-01-17T00:23:54.572Z,1026.17
2017-01-17T00:25:05.113Z,1026.17
2017-01-17T00:26:14.329Z,1026.16
2017-01-17T00:27:23.307Z,1026.17
2017-01-17T00:28:34.054Z,1026.09
2017-01-17T00:29:44.022Z,1026.17
2017-01-17T00:30:55.982Z,1026.15
2017-01-17T00:32:05.822Z,1026.21
2017-01-17T00:33:16.900Z,1026.19
2017-01-17T00:34:30.700Z,1026.2
2017-01-17T00:35:42.501Z,1026.22
2017-01-17T00:36:54.094Z,1026.24
2017-01-17T00:38:05.945Z,1026.28
2017-01-17T00:39:16.581Z,1026.26
2017-01-17T00:40:27.874Z,1026.3
2017-01-17T00:41:39.981Z,1026.3
2017-01-17T00:42:50.882Z,1026.32
2017-01-17T00:44:02.200Z,1026.22
2017-01-17T00:45:12.666Z,1026.33
2017-01-17T00:46:24.486Z,1026.31
2017-01-17T00:47:35.684Z,1026.32
2017-01-17T00:48:44.688Z,1026.36
2017-01-17T00:49:53.669Z,1026.38
2017-01-17T00:51:02.651Z,1026.39
2017-01-17T00:52:11.634Z,1026.4
2017-01-17T00:53:20.613Z,1026.37
2017-01-17T00:54:29.595Z,1026.44
2017-01-17T00:55:38.580Z,1026.46
2017-01-17T00:56:47.558Z,1026.46
2017-01-17T00:57:56.542Z,1026.51
2017-01-17T00:59:05.520Z,1026.56
2017-01-17T01:00:14.506Z,1026.59
2017-01-17T01:01:23.487Z,1026.62
2017-01-17T01:02:32.470Z,1026.59
2017-01-17T01:03:41.449Z,1026.62
2017-01-17T01:04:50.427Z,1026.61
2017-01-17T01:05:59.406Z,1026.56
2017-01-17T01:07:08.386Z,1026.56
2017-01-17T01:08:17.364Z,1026.6
2017-01-17T01:09:26.397Z,1026.58
2017-01-17T01:10:35.383Z,1026.63
2017-01-17T01:11:44.374Z,1026.59
2017-01-17T01:12:53.356Z,1026.63
2017-01-17T01:14:02.340Z,1026.6
2017-01-17T01:15:11.318Z,1026.59
2017-01-17T01:16:20.296Z,1026.58
2017-01-17T01:17:29.272Z,1026.59
2017-01-17T01:18:38.253Z,1026.55
2017-01-17T01:19:47.235Z,1026.62
2017-01-17T01:20:56.218Z,1026.6
2017-01-17T01:22:05.204Z,1026.59
2017-01-17T01:23:14.192Z,1026.6
2017-01-17T01:24:23.169Z,1026.6
2017-01-17T01:25:32.148Z,1026.64
2017-01-17T01:26:41.129Z,1026.65
2017-01-17T01:27:50.106Z,1026.67
2017-01-17T01:28:59.084Z,1026.7
2017-01-17T01:30:08.065Z,1026.74
2017-01-17T01:31:17.048Z,1026.75
2017-01-17T01:32:26.027Z,1026.72
2017-01-17T01:33:35.425Z,1026.73
2017-01-17T01:34:44.414Z,1026.74
2017-01-17T01:35:53.396Z,1026.73
2017-01-17T01:37:02.374Z,1026.81
2017-01-17T01:38:11.357Z,1026.84
2017-01-17T01:39:20.341Z,1026.83
2017-01-17T01:40:29.323Z,1026.83
2017-01-17T01:41:38.304Z,1026.86
2017-01-17T01:42:47.282Z,1026.88
2017-01-17T01:43:56.262Z,1026.86
2017-01-17T01:45:05.263Z,1026.91
2017-01-17T01:46:14.242Z,1026.88
2017-01-17T01:47:23.250Z,1026.85
2017-01-17T01:48:32.230Z,1026.87
2017-01-17T01:49:41.209Z,1026.85
2017-01-17T01:50:50.188Z,1026.81
2017-01-17T01:51:59.165Z,1026.87
2017-01-17T01:53:08.146Z,1026.83
2017-01-17T01:54:17.131Z,1026.9
2017-01-17T01:55:26.115Z,1026.88
2017-01-17T01:56:35.096Z,1026.9
2017-01-17T01:57:44.077Z,1026.87
2017-01-17T01:58:53.060Z,1026.89
2017-01-17T02:00:02.041Z,1026.93
2017-01-17T02:01:11.024Z,1026.92
2017-01-17T02:02:20.332Z,1026.91
2017-01-17T02:03:29.562Z,1026.9
2017-01-17T02:04:38.540Z,1026.95
2017-01-17T02:05:47.517Z,1026.97
2017-01-17T02:06:56.497Z,1026.98
2017-01-17T02:08:05.474Z,1026.99
2017-01-17T02:09:14.449Z,1027.02
2017-01-17T02:10:23.432Z,1027.05
2017-01-17T02:11:32.412Z,1027.09
2017-01-17T02:12:41.397Z,1027.03
2017-01-17T02:13:50.379Z,1027.02
2017-01-17T02:14:59.358Z,1027.06
2017-01-17T02:16:08.348Z,1027.04
2017-01-17T02:17:17.328Z,1027.04
2017-01-17T02:18:26.308Z,1027.09
2017-01-17T02:19:35.289Z,1027.08
2017-01-17T02:20:44.278Z,1027.1
2017-01-17T02:21:53.259Z,1027.1
2017-01-17T02:23:02.238Z,1027.11
2017-01-17T02:24:11.219Z,1027.11
2017-01-17T02:25:20.204Z,1027.15
2017-01-17T02:26:29.183Z,1027.12
2017-01-17T02:27:38.167Z,1027.12
2017-01-17T02:28:47.149Z,1027.16
2017-01-17T02:29:56.131Z,1027.12
2017-01-17T02:31:05.117Z,1027.1
2017-01-17T02:32:14.095Z,1027.13
2017-01-17T02:33:23.079Z,1027.12
2017-01-17T02:34:32.064Z,1027.12
2017-01-17T02:35:41.043Z,1027.14
2017-01-17T02:36:50.023Z,1027.18
2017-01-17T02:37:59.002Z,1027.16
2017-01-17T02:39:07.994Z,1027.16
2017-01-17T02:40:16.978Z,1027.21
2017-01-17T02:41:25.960Z,1027.21
2017-01-17T02:42:34.938Z,1027.25
2017-01-17T02:43:43.919Z,1027.22
2017-01-17T02:44:52.897Z,1027.21
2017-01-17T02:46:01.876Z,1027.23
2017-01-17T02:47:10.852Z,1027.27
2017-01-17T02:48:19.831Z,1027.25
2017-01-17T02:49:28.806Z,1027.23
2017-01-17T02:50:37.789Z,1027.29
2017-01-17T02:51:46.769Z,1027.31
2017-01-17T02:52:55.835Z,1027.32
2017-01-17T02:54:05.173Z,1027.34
2017-01-17T02:55:14.161Z,1027.36
2017-01-17T02:56:23.143Z,1027.33
2017-01-17T02:57:32.118Z,1027.33
2017-01-17T02:58:41.102Z,1027.34
2017-01-17T02:59:50.091Z,1027.33
2017-01-17T03:00:59.070Z,1027.31
2017-01-17T03:02:08.050Z,1027.35
2017-01-17T03:03:17.033Z,1027.36
2017-01-17T03:04:26.013Z,1027.35
2017-01-17T03:05:34.992Z,1027.36
2017-01-17T03:06:43.975Z,1027.39
2017-01-17T03:07:52.954Z,1027.37
2017-01-17T03:09:01.933Z,1027.37
2017-01-17T03:10:10.919Z,1027.39
2017-01-17T03:11:19.902Z,1027.41
2017-01-17T03:12:28.886Z,1027.41
2017-01-17T03:13:37.865Z,1027.46
2017-01-17T03:14:46.877Z,1027.47
2017-01-17T03:15:55.856Z,1027.45
2017-01-17T03:17:04.856Z,1027.48
2017-01-17T03:18:13.838Z,1027.46
2017-01-17T03:19:22.821Z,1027.47
2017-01-17T03:20:31.806Z,1027.5
2017-01-17T03:21:40.788Z,1027.46
2017-01-17T03:22:49.767Z,1027.48
2017-01-17T03:23:58.748Z,1027.53
2017-01-17T03:25:07.729Z,1027.49
2017-01-17T03:26:16.707Z,1027.51
2017-01-17T03:27:25.685Z,1027.51
2017-01-17T03:28:34.664Z,1027.53
2017-01-17T03:29:43.645Z,1027.56
2017-01-17T03:30:52.624Z,1027.56
2017-01-17T03:32:01.604Z,1027.55
2017-01-17T03:33:10.586Z,1027.55
2017-01-17T03:34:19.569Z,1027.54
2017-01-17T03:35:28.556Z,1027.55
2017-01-17T03:36:37.539Z,1027.56
2017-01-17T03:37:46.522Z,1027.56
2017-01-17T03:38:55.497Z,1027.56
2017-01-17T03:40:04.479Z,1027.54
2017-01-17T03:41:13.475Z,1027.56
2017-01-17T03:42:22.456Z,1027.52
2017-01-17T03:43:31.466Z,1027.54
2017-01-17T03:44:40.449Z,1027.57
2017-01-17T03:45:49.428Z,1027.58
2017-01-17T03:46:58.409Z,1027.6
2017-01-17T03:48:07.392Z,1027.64
2017-01-17T03:49:16.375Z,1027.65
2017-01-17T03:50:25.354Z,1027.73
2017-01-17T03:51:34.337Z,1027.75
2017-01-17T03:52:43.316Z,1027.71
2017-01-17T03:53:52.300Z,1027.71
2017-01-17T03:55:01.279Z,1027.69
2017-01-17T03:56:10.264Z,1027.69
2017-01-17T03:57:19.243Z,1027.68
2017-01-17T03:58:28.225Z,1027.69
2017-01-17T03:59:37.208Z,1027.68
2017-01-17T04:00:46.190Z,1027.67
2017-01-17T04:01:55.170Z,1027.64
2017-01-17T04:03:04.157Z,1027.67
2017-01-17T04:04:13.136Z,1027.67
2017-01-17T04:05:22.121Z,1027.7
2017-01-17T04:06:31.100Z,1027.73
2017-01-17T04:07:40.079Z,1027.72
2017-01-17T04:08:49.056Z,1027.74
2017-01-17T04:09:58.063Z,1027.73
2017-01-17T04:11:07.043Z,1027.7
2017-01-17T04:12:16.022Z,1027.71
2017-01-17T04:13:25.004Z,1027.73
2017-01-17T04:14:33.985Z,1027.75
2017-01-17T04:15:42.968Z,1027.8
2017-01-17T04:16:51.953Z,1027.81
2017-01-17T04:18:00.930Z,1027.83
2017-01-17T04:19:09.919Z,1027.86
2017-01-17T04:20:18.903Z,1027.87
2017-01-17T04:21:27.886Z,1027.87
2017-01-17T04:22:36.864Z,1027.86
2017-01-17T04:23:45.843Z,1027.83
2017-01-17T04:24:54.828Z,1027.87
2017-01-17T04:26:03.811Z,1027.88
2017-01-17T04:27:12.788Z,1027.88
2017-01-17T04:28:21.796Z,1027.84
2017-01-17T04:29:30.781Z,1027.85
2017-01-17T04:30:39.768Z,1027.84
2017-01-17T04:31:48.768Z,1027.86
2017-01-17T04:32:57.746Z,1027.87
2017-01-17T04:34:06.724Z,1027.87
2017-01-17T04:35:15.702Z,1027.89
2017-01-17T04:36:24.674Z,1027.89
2017-01-17T04:37:33.657Z,1027.89
2017-01-17T04:38:42.642Z,1027.92
2017-01-17T04:39:51.618Z,1027.91
2017-01-17T04:41:00.601Z,1027.92
2017-01-17T04:42:09.580Z,1027.94
2017-01-17T04:43:18.557Z,1027.98
2017-01-17T04:44:27.535Z,1027.98
2017-01-17T04:45:36.511Z,1028.02
2017-01-17T04:46:45.485Z,1028.03
2017-01-17T04:47:54.461Z,1028.04
2017-01-17T04:49:03.439Z,1028.03
2017-01-17T04:50:12.417Z,1028.07
2017-01-17T04:51:21.392Z,1028.11
2017-01-17T04:52:30.368Z,1028.06
2017-01-17T04:53:39.351Z,1028.11
2017-01-17T04:54:48.338Z,1028.1
2017-01-17T04:55:57.330Z,1028.12
2017-01-17T04:57:06.308Z,1028.17
2017-01-17T04:58:15.289Z,1028.2
2017-01-17T04:59:24.269Z,1028.16
2017-01-17T05:00:33.252Z,1028.19
2017-01-17T05:01:42.229Z,1028.22
2017-01-17T05:02:51.215Z,1028.19
2017-01-17T05:04:00.196Z,1028.2
2017-01-17T05:05:09.194Z,1028.26
2017-01-17T05:06:18.172Z,1028.23
2017-01-17T05:07:27.159Z,1028.29
2017-01-17T05:08:36.147Z,1028.27
2017-01-17T05:09:45.128Z,1028.28
2017-01-17T05:10:54.117Z,1028.27
2017-01-17T05:12:03.099Z,1028.28
2017-01-17T05:13:12.082Z,1028.28
2017-01-17T05:14:21.062Z,1028.32
2017-01-17T05:15:30.048Z,1028.32
2017-01-17T05:16:39.025Z,1028.32
2017-01-17T05:17:47.999Z,1028.36
2017-01-17T05:18:56.976Z,1028.39
2017-01-17T05:20:05.956Z,1028.4
2017-01-17T05:21:14.937Z,1028.42
2017-01-17T05:22:23.913Z,1028.42
2017-01-17T05:23:32.895Z,1028.41
2017-01-17T05:24:41.877Z,1028.48
2017-01-17T05:25:50.856Z,1028.43
2017-01-17T05:26:59.832Z,1028.49
2017-01-17T05:28:08.814Z,1028.48
2017-01-17T05:29:17.796Z,1028.48
2017-01-17T05:30:26.778Z,1028.46
2017-01-17T05:31:35.773Z,1028.48
2017-01-17T05:32:44.755Z,1028.49
2017-01-17T05:33:53.726Z,1028.45
2017-01-17T05:35:02.703Z,1028.42
2017-01-17T05:36:11.684Z,1028.45
2017-01-17T05:37:20.660Z,1028.5
2017-01-17T05:38:29.649Z,1028.51
2017-01-17T05:39:38.634Z,1028.51
2017-01-17T05:40:47.620Z,1028.53
2017-01-17T05:41:56.607Z,1028.55
2017-01-17T05:43:05.596Z,1028.49
2017-01-17T05:44:14.591Z,1028.49
2017-01-17T05:45:23.570Z,1028.5
2017-01-17T05:46:32.545Z,1028.51
2017-01-17T05:47:41.528Z,1028.52
2017-01-17T05:48:50.507Z,1028.48
2017-01-17T05:49:59.479Z,1028.52
2017-01-17T05:51:08.456Z,1028.55
2017-01-17T05:52:17.432Z,1028.54
2017-01-17T05:53:26.412Z,1028.52
2017-01-17T05:54:35.388Z,1028.54
2017-01-17T05:55:44.424Z,1028.61
2017-01-17T05:56:53.405Z,1028.64
2017-01-17T05:58:02.379Z,1028.64
2017-01-17T05:59:11.357Z,1028.6
2017-01-17T06:00:20.338Z,1028.59
2017-01-17T06:01:29.319Z,1028.6
2017-01-17T06:02:38.298Z,1028.64
2017-01-17T06:03:47.275Z,1028.65
2017-01-17T06:04:56.271Z,1028.66
2017-01-17T06:06:05.259Z,1028.65
2017-01-17T06:07:14.238Z,1028.65
2017-01-17T06:08:23.215Z,1028.68
2017-01-17T06:09:32.198Z,1028.72
2017-01-17T06:10:41.185Z,1028.71
2017-01-17T06:11:50.165Z,1028.74
2017-01-17T06:12:59.152Z,1028.75
2017-01-17T06:14:08.141Z,1028.78
2017-01-17T06:15:17.122Z,1028.8
2017-01-17T06:16:26.098Z,1028.86
2017-01-17T06:17:35.099Z,1028.8
2017-01-17T06:18:44.085Z,1028.87
2017-01-17T06:19:53.067Z,1028.86
2017-01-17T06:21:02.045Z,1028.87
2017-01-17T06:22:11.031Z,1028.85
2017-01-17T06:23:20.014Z,1028.92
2017-01-17T06:24:28.999Z,1028.95
2017-01-17T06:25:37.982Z,1028.94
2017-01-17T06:26:46.958Z,1028.97
2017-01-17T06:27:55.943Z,1029
2017-01-17T06:29:05.340Z,1029.04
2017-01-17T06:30:14.321Z,1029.09
2017-01-17T06:31:23.329Z,1029.09
2017-01-17T06:32:32.341Z,1029.1
2017-01-17T06:33:41.321Z,1029.14
2017-01-17T06:34:50.302Z,1029.19
2017-01-17T06:35:59.291Z,1029.16
2017-01-17T06:37:08.276Z,1029.13
2017-01-17T06:38:17.254Z,1029.21
2017-01-17T06:39:26.259Z,1029.23
2017-01-17T06:40:35.240Z,1029.19
2017-01-17T06:41:44.222Z,1029.25
2017-01-17T06:42:53.205Z,1029.27
2017-01-17T06:44:02.182Z,1029.25
2017-01-17T06:45:11.163Z,1029.26
2017-01-17T06:46:20.138Z,1029.26
2017-01-17T06:47:29.113Z,1029.27
2017-01-17T06:48:38.097Z,1029.32
2017-01-17T06:49:47.075Z,1029.33
2017-01-17T06:50:56.062Z,1029.38
2017-01-17T06:52:05.040Z,1029.4
2017-01-17T06:53:14.035Z,1029.4
2017-01-17T06:54:23.012Z,1029.46
2017-01-17T06:55:31.990Z,1029.46
2017-01-17T06:56:40.972Z,1029.46
2017-01-17T06:57:49.958Z,1029.47
2017-01-17T06:58:58.958Z,1029.48
2017-01-17T07:00:07.954Z,1029.45
2017-01-17T07:01:16.930Z,1029.47
2017-01-17T07:02:25.909Z,1029.47
2017-01-17T07:03:34.888Z,1029.52
2017-01-17T07:04:43.871Z,1029.55
2017-01-17T07:05:52.852Z,1029.56
2017-01-17T07:07:01.835Z,1029.61
2017-01-17T07:08:10.836Z,1029.62
2017-01-17T07:09:19.819Z,1029.65
2017-01-17T07:10:28.801Z,1029.68
2017-01-17T07:11:37.783Z,1029.72
2017-01-17T07:12:46.761Z,1029.78
2017-01-17T07:13:55.750Z,1029.76
2017-01-17T07:15:04.734Z,1029.78
2017-01-17T07:16:13.709Z,1029.83
2017-01-17T07:17:22.690Z,1029.88
2017-01-17T07:18:31.670Z,1029.84
2017-01-17T07:19:40.649Z,1029.87
2017-01-17T07:20:49.636Z,1029.87
2017-01-17T07:21:58.619Z,1029.9
2017-01-17T07:23:07.598Z,1029.91
2017-01-17T07:24:16.579Z,1029.9
2017-01-17T07:25:25.577Z,1029.93
2017-01-17T07:26:34.557Z,1029.92
2017-01-17T07:27:43.536Z,1029.93
2017-01-17T07:28:52.515Z,1029.93
2017-01-17T07:30:01.495Z,1029.92
2017-01-17T07:31:10.526Z,1029.92
2017-01-17T07:32:19.837Z,1029.93
2017-01-17T07:33:28.816Z,1029.96
2017-01-17T07:34:37.793Z,1029.9
2017-01-17T07:35:46.776Z,1029.91
2017-01-17T07:36:55.779Z,1029.93
2017-01-17T07:38:04.756Z,1029.95
2017-01-17T07:39:13.742Z,1029.94
2017-01-17T07:40:22.719Z,1029.92
2017-01-17T07:41:32.431Z,1029.99
2017-01-17T07:42:41.408Z,1029.98
2017-01-17T07:43:50.392Z,1030
2017-01-17T07:44:59.378Z,1029.99
2017-01-17T07:46:08.366Z,1030.03
2017-01-17T07:47:17.481Z,1030.06
2017-01-17T07:48:26.469Z,1030.03
2017-01-17T07:49:35.481Z,1030.1
2017-01-17T07:50:44.465Z,1030.06
2017-01-17T07:51:53.450Z,1030.07
2017-01-17T07:53:02.439Z,1030.11
2017-01-17T07:54:11.424Z,1030.07
2017-01-17T07:55:20.400Z,1030.09
2017-01-17T07:56:29.395Z,1030.15
2017-01-17T07:57:38.376Z,1030.15
2017-01-17T07:58:47.361Z,1030.14
2017-01-17T07:59:56.373Z,1030.13
2017-01-17T08:01:05.884Z,1030.13
2017-01-17T08:02:17.903Z,1030.09
2017-01-17T08:03:27.254Z,1030.1
2017-01-17T08:04:37.423Z,1030.12
2017-01-17T08:05:46.854Z,1030.12
2017-01-17T08:06:55.837Z,1030.16
2017-01-17T08:08:05.303Z,1030.16
2017-01-17T08:09:14.287Z,1030.22
2017-01-17T08:10:23.270Z,1030.16
2017-01-17T08:11:32.798Z,1030.16
2017-01-17T08:12:42.242Z,1030.14
2017-01-17T08:13:52.134Z,1030.18
2017-01-17T08:15:02.093Z,1030.18
2017-01-17T08:16:12.135Z,1030.25
2017-01-17T08:17:21.970Z,1030.23
2017-01-17T08:18:32.136Z,1030.22
2017-01-17T08:19:42.229Z,1030.26
2017-01-17T08:20:52.760Z,1030.27
2017-01-17T08:22:02.925Z,1030.27
2017-01-17T08:23:12.122Z,1030.26
2017-01-17T08:24:22.199Z,1030.26
2017-01-17T08:25:31.177Z,1030.3
2017-01-17T08:26:40.159Z,1030.28
2017-01-17T08:27:49.337Z,1030.31
2017-01-17T08:28:58.316Z,1030.31
2017-01-17T08:30:07.972Z,1030.29
2017-01-17T08:31:17.575Z,1030.31
2017-01-17T08:32:29.491Z,1030.36
2017-01-17T08:33:38.473Z,1030.36
2017-01-17T08:34:47.634Z,1030.36
2017-01-17T08:35:57.168Z,1030.39
2017-01-17T08:37:06.144Z,1030.38
2017-01-17T08:38:16.293Z,1030.38
2017-01-17T08:39:26.314Z,1030.4
2017-01-17T08:40:37.253Z,1030.37
2017-01-17T08:41:47.380Z,1030.38
2017-01-17T08:42:57.067Z,1030.37
2017-01-17T08:44:06.668Z,1030.41
2017-01-17T08:45:15.652Z,1030.37
2017-01-17T08:46:25.452Z,1030.36
2017-01-17T08:47:34.714Z,1030.33
2017-01-17T08:48:43.693Z,1030.31
2017-01-17T08:49:54.154Z,1030.33
2017-01-17T08:51:03.147Z,1030.33
2017-01-17T08:52:12.123Z,1030.33
2017-01-17T08:53:21.443Z,1030.36
2017-01-17T08:54:31.069Z,1030.37
2017-01-17T08:55:40.061Z,1030.39
2017-01-17T08:56:49.040Z,1030.44
2017-01-17T08:57:58.022Z,1030.4
2017-01-17T08:59:07.000Z,1030.48
2017-01-17T09:00:16.010Z,1030.5
2017-01-17T09:01:24.987Z,1030.51
2017-01-17T09:02:33.998Z,1030.5
2017-01-17T09:03:42.977Z,1030.52
2017-01-17T09:04:51.955Z,1030.53
2017-01-17T09:06:00.965Z,1030.53
2017-01-17T09:07:09.956Z,1030.57
2017-01-17T09:08:18.937Z,1030.56
2017-01-17T09:09:27.913Z,1030.56
2017-01-17T09:10:36.893Z,1030.59
2017-01-17T09:11:45.873Z,1030.59
2017-01-17T09:12:54.854Z,1030.66
2017-01-17T09:14:03.835Z,1030.65
2017-01-17T09:15:12.827Z,1030.66
2017-01-17T09:16:21.816Z,1030.68
2017-01-17T09:17:30.797Z,1030.71
2017-01-17T09:18:39.777Z,1030.73
2017-01-17T09:19:48.760Z,1030.72
2017-01-17T09:20:57.741Z,1030.76
2017-01-17T09:22:06.718Z,1030.72
2017-01-17T09:23:15.830Z,1030.72
2017-01-17T09:24:24.811Z,1030.68
2017-01-17T09:25:33.788Z,1030.73
2017-01-17T09:26:42.774Z,1030.73
2017-01-17T09:27:51.753Z,1030.78
2017-01-17T09:29:00.733Z,1030.75
2017-01-17T09:30:09.719Z,1030.82
2017-01-17T09:31:18.697Z,1030.81
2017-01-17T09:32:27.690Z,1030.81
2017-01-17T09:33:36.668Z,1030.84
2017-01-17T09:34:45.654Z,1030.83
2017-01-17T09:35:54.776Z,1030.87
2017-01-17T09:37:03.759Z,1030.9
2017-01-17T09:38:13.097Z,1030.9
2017-01-17T09:39:22.076Z,1030.92
2017-01-17T09:40:31.081Z,1030.92
2017-01-17T09:41:40.317Z,1030.9
2017-01-17T09:42:49.315Z,1030.97
2017-01-17T09:43:58.464Z,1031
2017-01-17T09:45:07.676Z,1031.02
2017-01-17T09:46:16.674Z,1031.04
2017-01-17T09:47:25.661Z,1031.06
2017-01-17T09:48:34.646Z,1031.08
2017-01-17T09:49:43.631Z,1031.08
2017-01-17T09:50:52.643Z,1031.11
2017-01-17T09:52:01.674Z,1031.08
2017-01-17T09:53:10.666Z,1031.13
2017-01-17T09:54:19.648Z,1031.1
2017-01-17T09:55:28.634Z,1031.15
2017-01-17T09:56:37.613Z,1031.19
2017-01-17T09:57:46.594Z,1031.19
2017-01-17T09:58:55.572Z,1031.2
2017-01-17T10:00:04.584Z,1031.23
2017-01-17T10:01:13.567Z,1031.24
2017-01-17T10:02:22.552Z,1031.24
2017-01-17T10:03:31.681Z,1031.25
2017-01-17T10:04:40.663Z,1031.29
2017-01-17T10:05:49.640Z,1031.28
2017-01-17T10:06:58.623Z,1031.28
2017-01-17T10:08:07.600Z,1031.26
2017-01-17T10:09:16.581Z,1031.29
2017-01-17T10:10:26.816Z,1031.27
2017-01-17T10:11:35.794Z,1031.31
2017-01-17T10:12:44.773Z,1031.25
2017-01-17T10:13:53.759Z,1031.28
2017-01-17T10:15:02.879Z,1031.3
2017-01-17T10:16:11.856Z,1031.29
2017-01-17T10:17:20.837Z,1031.31
2017-01-17T10:18:29.827Z,1031.3
2017-01-17T10:19:38.966Z,1031.32
2017-01-17T10:20:47.949Z,1031.32
2017-01-17T10:21:56.933Z,1031.35
2017-01-17T10:23:05.917Z,1031.37
2017-01-17T10:24:15.148Z,1031.37
2017-01-17T10:25:24.460Z,1031.34
2017-01-17T10:26:34.623Z,1031.41
2017-01-17T10:27:44.151Z,1031.37
2017-01-17T10:28:53.726Z,1031.35
2017-01-17T10:30:03.321Z,1031.4
2017-01-17T10:31:13.040Z,1031.41
2017-01-17T10:32:23.507Z,1031.42
2017-01-17T10:33:35.828Z,1031.39
2017-01-17T10:34:45.530Z,1031.44
2017-01-17T10:35:55.543Z,1031.46
2017-01-17T10:37:04.521Z,1031.46
2017-01-17T10:38:14.233Z,1031.46
2017-01-17T10:39:23.211Z,1031.45
2017-01-17T10:40:32.783Z,1031.47
2017-01-17T10:41:42.475Z,1031.48
2017-01-17T10:42:53.056Z,1031.5
2017-01-17T10:44:03.791Z,1031.48
2017-01-17T10:45:13.834Z,1031.46
2017-01-17T10:46:23.519Z,1031.5
2017-01-17T10:47:33.492Z,1031.45
2017-01-17T10:48:42.627Z,1031.45
2017-01-17T10:49:51.636Z,1031.41
2017-01-17T10:51:01.133Z,1031.44
2017-01-17T10:52:10.117Z,1031.45
2017-01-17T10:53:19.103Z,1031.4
2017-01-17T10:54:28.083Z,1031.44
2017-01-17T10:55:37.066Z,1031.46
2017-01-17T10:56:46.052Z,1031.41
2017-01-17T10:57:55.041Z,1031.45
2017-01-17T10:59:04.021Z,1031.43
2017-01-17T11:00:13.000Z,1031.41
2017-01-17T11:01:21.997Z,1031.42
2017-01-17T11:02:31.011Z,1031.42
2017-01-17T11:03:40.015Z,1031.42
2017-01-17T11:04:49.005Z,1031.42
2017-01-17T11:05:57.987Z,1031.44
2017-01-17T11:07:06.972Z,1031.43
2017-01-17T11:08:15.955Z,1031.42
2017-01-17T11:09:24.936Z,1031.43
2017-01-17T11:10:33.923Z,1031.41
2017-01-17T11:11:42.903Z,1031.42
2017-01-17T11:12:51.886Z,1031.43
2017-01-17T11:14:00.875Z,1031.38
2017-01-17T11:15:09.882Z,1031.4
2017-01-17T11:16:18.865Z,1031.39
2017-01-17T11:17:27.846Z,1031.4
2017-01-17T11:18:36.825Z,1031.4
2017-01-17T11:19:46.039Z,1031.43
2017-01-17T11:20:55.225Z,1031.42
2017-01-17T11:22:04.205Z,1031.41
2017-01-17T11:23:13.188Z,1031.43
2017-01-17T11:24:22.176Z,1031.42
2017-01-17T11:25:31.165Z,1031.36
2017-01-17T11:26:40.148Z,1031.37
2017-01-17T11:27:49.738Z,1031.34
2017-01-17T11:28:58.718Z,1031.37
2017-01-17T11:30:07.704Z,1031.35
2017-01-17T11:31:16.686Z,1031.32
2017-01-17T11:32:25.670Z,1031.32
2017-01-17T11:33:34.833Z,1031.36
2017-01-17T11:34:43.819Z,1031.34
2017-01-17T11:35:52.950Z,1031.3
2017-01-17T11:37:02.130Z,1031.34
2017-01-17T11:38:11.230Z,1031.34
2017-01-17T11:39:20.210Z,1031.34
2017-01-17T11:40:29.193Z,1031.35
2017-01-17T11:41:38.178Z,1031.36
2017-01-17T11:42:47.161Z,1031.35
2017-01-17T11:43:56.144Z,1031.34
2017-01-17T11:45:05.862Z,1031.36
2017-01-17T11:46:14.966Z,1031.29
2017-01-17T11:47:23.948Z,1031.33
2017-01-17T11:48:32.930Z,1031.33
2017-01-17T11:49:42.342Z,1031.3
2017-01-17T11:50:51.955Z,1031.33
2017-01-17T11:52:00.937Z,1031.34
2017-01-17T11:53:09.916Z,1031.35
2017-01-17T11:54:18.921Z,1031.38
2017-01-17T11:55:27.901Z,1031.36
2017-01-17T11:56:36.912Z,1031.37
2017-01-17T11:57:45.891Z,1031.4
2017-01-17T11:58:54.875Z,1031.37
2017-01-17T12:00:03.855Z,1031.41
2017-01-17T12:01:12.840Z,1031.42
2017-01-17T12:02:21.829Z,1031.46
2017-01-17T12:03:30.814Z,1031.47
2017-01-17T12:04:39.795Z,1031.48
2017-01-17T12:05:48.779Z,1031.51
2017-01-17T12:06:57.761Z,1031.51
2017-01-17T12:08:07.424Z,1031.51
2017-01-17T12:09:16.407Z,1031.49
2017-01-17T12:10:25.391Z,1031.52
2017-01-17T12:11:34.562Z,1031.53
2017-01-17T12:12:43.570Z,1031.49
2017-01-17T12:13:52.627Z,1031.57
2017-01-17T12:15:01.674Z,1031.57
2017-01-17T12:16:10.659Z,1031.6
2017-01-17T12:17:19.638Z,1031.56
2017-01-17T12:18:28.627Z,1031.56
2017-01-17T12:19:37.610Z,1031.58
2017-01-17T12:20:46.593Z,1031.54
2017-01-17T12:21:55.575Z,1031.57
2017-01-17T12:23:05.156Z,1031.55
2017-01-17T12:24:14.137Z,1031.57
2017-01-17T12:25:23.122Z,1031.53
2017-01-17T12:26:32.462Z,1031.59
2017-01-17T12:27:42.059Z,1031.57
2017-01-17T12:28:51.287Z,1031.56
2017-01-17T12:30:00.866Z,1031.58
2017-01-17T12:31:11.904Z,1031.57
2017-01-17T12:32:22.204Z,1031.63
2017-01-17T12:33:33.090Z,1031.64
2017-01-17T12:34:42.074Z,1031.62
2017-01-17T12:35:51.075Z,1031.61
2017-01-17T12:37:03.608Z,1031.65
2017-01-17T12:38:12.592Z,1031.63
2017-01-17T12:39:21.575Z,1031.62
2017-01-17T12:40:30.556Z,1031.63
2017-01-17T12:41:39.539Z,1031.61
2017-01-17T12:42:48.519Z,1031.65
2017-01-17T12:43:57.501Z,1031.64
2017-01-17T12:45:06.484Z,1031.62
2017-01-17T12:46:15.465Z,1031.71
2017-01-17T12:47:24.752Z,1031.68
2017-01-17T12:48:34.108Z,1031.66
2017-01-17T12:49:44.055Z,1031.69
2017-01-17T12:50:53.466Z,1031.66
2017-01-17T12:52:02.934Z,1031.69
2017-01-17T12:53:11.919Z,1031.66
2017-01-17T12:54:21.154Z,1031.67
2017-01-17T12:55:31.027Z,1031.69
2017-01-17T12:56:40.009Z,1031.68
2017-01-17T12:57:49.158Z,1031.69
2017-01-17T12:59:00.244Z,1031.71
2017-01-17T13:00:09.460Z,1031.69
2017-01-17T13:01:18.705Z,1031.69
2017-01-17T13:02:28.371Z,1031.71
2017-01-17T13:03:38.601Z,1031.72
2017-01-17T13:04:48.258Z,1031.71
2017-01-17T13:05:58.024Z,1031.72
2017-01-17T13:07:07.710Z,1031.74
2017-01-17T13:08:16.959Z,1031.77
2017-01-17T13:09:26.489Z,1031.75
2017-01-17T13:10:35.710Z,1031.78
2017-01-17T13:11:44.869Z,1031.79
2017-01-17T13:12:54.186Z,1031.82
2017-01-17T13:14:03.439Z,1031.81
2017-01-17T13:15:12.854Z,1031.8
2017-01-17T13:16:22.271Z,1031.82
2017-01-17T13:17:31.666Z,1031.84
2017-01-17T13:18:41.189Z,1031.81
2017-01-17T13:19:50.316Z,1031.83
2017-01-17T13:20:59.406Z,1031.81
2017-01-17T13:22:08.465Z,1031.82
2017-01-17T13:23:17.542Z,1031.84
2017-01-17T13:24:26.679Z,1031.82
2017-01-17T13:25:35.776Z,1031.84
2017-01-17T13:26:44.928Z,1031.82
2017-01-17T13:27:54.016Z,1031.85
2017-01-17T13:29:03.101Z,1031.84
2017-01-17T13:30:12.155Z,1031.86
2017-01-17T13:31:21.309Z,1031.84
2017-01-17T13:32:30.375Z,1031.82
2017-01-17T13:33:39.489Z,1031.89
2017-01-17T13:34:48.583Z,1031.92
2017-01-17T13:35:57.637Z,1031.93
2017-01-17T13:37:06.707Z,1031.95
2017-01-17T13:38:15.746Z,1031.94
2017-01-17T13:39:24.817Z,1031.95
2017-01-17T13:40:33.953Z,1031.96
2017-01-17T13:41:43.005Z,1031.99
2017-01-17T13:42:52.139Z,1031.98
2017-01-17T13:44:01.242Z,1031.99
2017-01-17T13:45:10.378Z,1031.99
2017-01-17T13:46:19.425Z,1031.9
2017-01-17T13:47:28.525Z,1031.96
2017-01-17T13:48:37.663Z,1032
2017-01-17T13:49:46.760Z,1031.92
2017-01-17T13:50:55.826Z,1031.95
2017-01-17T13:52:05.048Z,1031.94
2017-01-17T13:53:14.160Z,1031.94
2017-01-17T13:54:23.235Z,1031.94
2017-01-17T13:55:32.343Z,1031.94
2017-01-17T13:56:41.414Z,1031.93
2017-01-17T13:57:50.479Z,1031.97
2017-01-17T13:58:59.565Z,1031.96
2017-01-17T14:00:08.730Z,1031.93